createdAt,value
2023-05-15T00:00:36.438Z,1008.92
2023-05-15T00:01:36.402Z,1008.93
2023-05-15T00:02:36.469Z,1008.91
2023-05-15T00:03:36.542Z,1008.87
2023-05-15T00:04:36.430Z,1008.94
2023-05-15T00:05:36.378Z,1008.92
2023-05-15T00:06:36.350Z,1008.86
2023-05-15T00:07:36.336Z,1008.85
2023-05-15T00:08:36.349Z,1008.85
2023-05-15T00:09:36.321Z,1008.86
2023-05-15T00:10:36.335Z,1008.75
2023-05-15T00:11:36.296Z,1008.74
2023-05-15T00:12:36.293Z,1008.77
2023-05-15T00:13:36.273Z,1008.79
2023-05-15T00:14:36.265Z,1008.80
2023-05-15T00:15:36.277Z,1008.77
2023-05-15T00:16:36.294Z,1008.74
2023-05-15T00:17:36.243Z,1008.72
2023-05-15T00:18:36.284Z,1008.71
2023-05-15T00:19:36.206Z,1008.69
2023-05-15T00:20:36.232Z,1008.65
2023-05-15T00:21:36.183Z,1008.64
2023-05-15T00:22:36.177Z,1008.59
2023-05-15T00:23:36.163Z,1008.57
2023-05-15T00:24:36.201Z,1008.56
2023-05-15T00:25:36.164Z,1008.52
2023-05-15T00:26:36.125Z,1008.55
2023-05-15T00:27:36.120Z,1008.52
2023-05-15T00:28:36.109Z,1008.51
2023-05-15T00:29:36.125Z,1008.51
2023-05-15T00:30:36.089Z,1008.52
2023-05-15T00:31:36.142Z,1008.51
2023-05-15T00:32:36.118Z,1008.47
2023-05-15T00:33:36.057Z,1008.44
2023-05-15T00:34:36.065Z,1008.45
2023-05-15T00:35:36.035Z,1008.39
2023-05-15T00:36:36.028Z,1008.41
2023-05-15T00:37:36.022Z,1008.50
2023-05-15T00:38:36.012Z,1008.40
2023-05-15T00:39:36.025Z,1008.41
2023-05-15T00:40:36.161Z,1008.45
2023-05-15T00:41:35.977Z,1008.40
2023-05-15T00:42:35.956Z,1008.46
2023-05-15T00:43:35.951Z,1008.40
2023-05-15T00:44:35.934Z,1008.40
2023-05-15T00:45:35.959Z,1008.30
2023-05-15T00:46:35.964Z,1008.33
2023-05-15T00:47:35.925Z,1008.23
2023-05-15T00:48:35.895Z,1008.22
2023-05-15T00:49:35.890Z,1008.17
2023-05-15T00:50:35.876Z,1008.23
2023-05-15T00:51:35.894Z,1008.23
2023-05-15T00:52:35.889Z,1008.18
2023-05-15T00:53:35.884Z,1008.21
2023-05-15T00:54:35.831Z,1008.20
2023-05-15T00:55:35.820Z,1008.15
2023-05-15T00:56:35.836Z,1008.17
2023-05-15T00:57:35.823Z,1008.08
2023-05-15T00:58:35.804Z,1008.12
2023-05-15T00:59:35.784Z,1008.09
2023-05-15T01:00:35.810Z,1008.16
2023-05-15T01:01:35.797Z,1008.13
2023-05-15T01:02:35.809Z,1008.15
2023-05-15T01:03:35.810Z,1008.13
2023-05-15T01:04:35.721Z,1008.16
2023-05-15T01:05:35.730Z,1008.21
2023-05-15T01:06:35.697Z,1008.12
2023-05-15T01:07:35.694Z,1008.11
2023-05-15T01:08:35.676Z,1008.07
2023-05-15T01:09:35.671Z,1008.05
2023-05-15T01:10:35.685Z,1008.10
2023-05-15T01:11:35.649Z,1008.03
2023-05-15T01:12:35.657Z,1008.05
2023-05-15T01:13:35.648Z,1008.07
2023-05-15T01:14:35.619Z,1008.05
2023-05-15T01:15:35.630Z,1008.07
2023-05-15T01:16:35.588Z,1008.03
2023-05-15T01:17:35.713Z,1008.01
2023-05-15T01:18:35.726Z,1007.99
2023-05-15T01:19:35.643Z,1008.06
2023-05-15T01:20:35.574Z,1008.00
2023-05-15T01:21:35.553Z,1007.96
2023-05-15T01:22:35.527Z,1007.96
2023-05-15T01:23:35.522Z,1007.94
2023-05-15T01:24:35.507Z,1007.95
2023-05-15T01:25:35.516Z,1007.90
2023-05-15T01:26:35.489Z,1007.82
2023-05-15T01:27:35.477Z,1007.86
2023-05-15T01:28:35.481Z,1007.82
2023-05-15T01:29:35.474Z,1007.80
2023-05-15T01:30:35.465Z,1007.85
2023-05-15T01:31:35.461Z,1007.89
2023-05-15T01:32:35.456Z,1007.86
2023-05-15T01:33:35.407Z,1007.93
2023-05-15T01:34:35.391Z,1007.87
2023-05-15T01:35:35.417Z,1007.89
2023-05-15T01:36:35.376Z,1007.89
2023-05-15T01:37:35.360Z,1007.89
2023-05-15T01:38:35.346Z,1007.84
2023-05-15T01:39:35.338Z,1007.89
2023-05-15T01:40:35.329Z,1007.87
2023-05-15T01:41:35.341Z,1007.85
2023-05-15T01:42:35.304Z,1007.94
2023-05-15T01:43:35.297Z,1007.88
2023-05-15T01:44:35.308Z,1007.90
2023-05-15T01:45:35.274Z,1007.85
2023-05-15T01:46:35.312Z,1007.86
2023-05-15T01:47:35.307Z,1007.84
2023-05-15T01:48:35.238Z,1007.87
2023-05-15T01:49:35.225Z,1007.83
2023-05-15T01:50:35.224Z,1007.86
2023-05-15T01:51:35.225Z,1007.82
2023-05-15T01:52:35.196Z,1007.84
2023-05-15T01:53:35.186Z,1007.82
2023-05-15T01:54:35.171Z,1007.76
2023-05-15T01:55:35.165Z,1007.81
2023-05-15T01:56:35.174Z,1007.77
2023-05-15T01:57:35.147Z,1007.74
2023-05-15T01:58:35.127Z,1007.69
2023-05-15T01:59:35.125Z,1007.75
2023-05-15T02:00:35.121Z,1007.71
2023-05-15T02:01:35.135Z,1007.71
2023-05-15T02:02:35.159Z,1007.71
2023-05-15T02:03:35.186Z,1007.72
2023-05-15T02:04:35.072Z,1007.68
2023-05-15T02:05:35.055Z,1007.68
2023-05-15T02:06:35.047Z,1007.70
2023-05-15T02:07:35.054Z,1007.66
2023-05-15T02:08:35.017Z,1007.69
2023-05-15T02:09:35.009Z,1007.64
2023-05-15T02:10:34.993Z,1007.64
2023-05-15T02:11:34.983Z,1007.71
2023-05-15T02:12:34.991Z,1007.72
2023-05-15T02:13:34.963Z,1007.75
2023-05-15T02:14:34.958Z,1007.70
2023-05-15T02:15:34.944Z,1007.67
2023-05-15T02:16:35.032Z,1007.68
2023-05-15T02:17:34.971Z,1007.73
2023-05-15T02:18:34.966Z,1007.61
2023-05-15T02:19:34.900Z,1007.67
2023-05-15T02:20:34.885Z,1007.66
2023-05-15T02:21:34.880Z,1007.60
2023-05-15T02:22:34.899Z,1007.60
2023-05-15T02:23:34.884Z,1007.56
2023-05-15T02:24:34.850Z,1007.55
2023-05-15T02:25:34.834Z,1007.54
2023-05-15T02:26:34.821Z,1007.52
2023-05-15T02:27:34.824Z,1007.55
2023-05-15T02:28:34.804Z,1007.56
2023-05-15T02:29:34.786Z,1007.55
2023-05-15T02:30:34.780Z,1007.55
2023-05-15T02:31:34.812Z,1007.52
2023-05-15T02:32:34.851Z,1007.55
2023-05-15T02:33:34.768Z,1007.52
2023-05-15T02:34:34.745Z,1007.53
2023-05-15T02:35:34.756Z,1007.47
2023-05-15T02:36:34.725Z,1007.45
2023-05-15T02:37:34.701Z,1007.46
2023-05-15T02:38:34.720Z,1007.54
2023-05-15T02:39:34.687Z,1007.49
2023-05-15T02:40:34.700Z,1007.55
2023-05-15T02:41:34.668Z,1007.56
2023-05-15T02:42:34.663Z,1007.48
2023-05-15T02:43:34.637Z,1007.51
2023-05-15T02:44:34.629Z,1007.38
2023-05-15T02:45:34.657Z,1007.47
2023-05-15T02:46:34.618Z,1007.40
2023-05-15T02:47:34.642Z,1007.40
2023-05-15T02:48:34.614Z,1007.39
2023-05-15T02:49:34.572Z,1007.38
2023-05-15T02:50:34.592Z,1007.36
2023-05-15T02:51:34.557Z,1007.36
2023-05-15T02:52:34.551Z,1007.27
2023-05-15T02:53:34.528Z,1007.37
2023-05-15T02:54:34.526Z,1007.26
2023-05-15T02:55:34.534Z,1007.21
2023-05-15T02:56:34.501Z,1007.30
2023-05-15T02:57:34.521Z,1007.27
2023-05-15T02:58:34.481Z,1007.26
2023-05-15T02:59:34.464Z,1007.34
2023-05-15T03:00:34.473Z,1007.24
2023-05-15T03:01:34.483Z,1007.26
2023-05-15T03:02:34.487Z,1007.24
2023-05-15T03:03:34.418Z,1007.26
2023-05-15T03:04:34.463Z,1007.22
2023-05-15T03:05:34.414Z,1007.23
2023-05-15T03:06:34.396Z,1007.24
2023-05-15T03:07:34.374Z,1007.28
2023-05-15T03:08:34.374Z,1007.22
2023-05-15T03:09:34.356Z,1007.28
2023-05-15T03:10:34.390Z,1007.26
2023-05-15T03:11:34.334Z,1007.27
2023-05-15T03:12:34.322Z,1007.28
2023-05-15T03:13:34.314Z,1007.29
2023-05-15T03:14:34.313Z,1007.27
2023-05-15T03:15:34.310Z,1007.24
2023-05-15T03:16:34.348Z,1007.29
2023-05-15T03:17:34.285Z,1007.20
2023-05-15T03:18:34.276Z,1007.22
2023-05-15T03:19:34.251Z,1007.22
2023-05-15T03:20:34.282Z,1007.24
2023-05-15T03:21:34.251Z,1007.22
2023-05-15T03:22:34.226Z,1007.23
2023-05-15T03:23:36.424Z,1007.21
2023-05-15T03:24:34.221Z,1007.18
2023-05-15T03:25:34.184Z,1007.22
2023-05-15T03:26:34.203Z,1007.18
2023-05-15T03:27:34.166Z,1007.14
2023-05-15T03:28:34.156Z,1007.12
2023-05-15T03:29:34.142Z,1007.18
2023-05-15T03:30:34.138Z,1007.12
2023-05-15T03:31:34.185Z,1007.16
2023-05-15T03:32:34.168Z,1007.13
2023-05-15T03:33:34.097Z,1007.14
2023-05-15T03:34:34.090Z,1007.11
2023-05-15T03:35:34.087Z,1007.01
2023-05-15T03:36:34.117Z,1007.06
2023-05-15T03:37:34.056Z,1007.04
2023-05-15T03:38:34.045Z,1007.01
2023-05-15T03:39:34.032Z,1007.02
2023-05-15T03:40:34.022Z,1007.00
2023-05-15T03:41:34.043Z,1006.97
2023-05-15T03:42:34.037Z,1006.98
2023-05-15T03:43:33.990Z,1006.97
2023-05-15T03:44:33.985Z,1006.98
2023-05-15T03:45:33.967Z,1007.01
2023-05-15T03:46:33.993Z,1006.96
2023-05-15T03:47:33.968Z,1007.03
2023-05-15T03:48:33.935Z,1007.00
2023-05-15T03:49:33.922Z,1007.01
2023-05-15T03:50:33.923Z,1006.95
2023-05-15T03:51:33.924Z,1006.98
2023-05-15T03:52:33.956Z,1006.99
2023-05-15T03:53:33.886Z,1006.92
2023-05-15T03:54:33.877Z,1006.98
2023-05-15T03:55:33.873Z,1006.93
2023-05-15T03:56:33.851Z,1007.02
2023-05-15T03:57:33.864Z,1006.94
2023-05-15T03:58:33.852Z,1006.88
2023-05-15T03:59:33.825Z,1006.93
2023-05-15T04:00:33.817Z,1006.95
2023-05-15T04:01:41.423Z,1006.91
2023-05-15T04:02:34.904Z,1006.91
2023-05-15T04:03:33.842Z,1007.01
2023-05-15T04:04:33.764Z,1007.02
2023-05-15T04:05:33.805Z,1006.99
2023-05-15T04:06:33.748Z,1006.98
2023-05-15T04:07:33.750Z,1007.00
2023-05-15T04:08:33.739Z,1007.01
2023-05-15T04:09:33.732Z,1006.96
2023-05-15T04:10:33.727Z,1006.99
2023-05-15T04:11:33.695Z,1006.99
2023-05-15T04:12:33.711Z,1006.94
2023-05-15T04:13:33.669Z,1006.98
2023-05-15T04:14:33.674Z,1006.98
2023-05-15T04:15:33.641Z,1006.97
2023-05-15T04:16:33.665Z,1007.01
2023-05-15T04:17:33.688Z,1006.99
2023-05-15T04:18:33.631Z,1006.92
2023-05-15T04:19:33.623Z,1006.96
2023-05-15T04:20:33.594Z,1006.90
2023-05-15T04:21:33.580Z,1006.83
2023-05-15T04:22:33.576Z,1006.92
2023-05-15T04:23:33.557Z,1006.87
2023-05-15T04:24:33.590Z,1006.85
2023-05-15T04:25:33.530Z,1006.88
2023-05-15T04:26:33.560Z,1006.91
2023-05-15T04:27:33.512Z,1006.88
2023-05-15T04:28:33.500Z,1006.85
2023-05-15T04:29:33.513Z,1006.86
2023-05-15T04:30:33.473Z,1006.89
2023-05-15T04:31:33.526Z,1006.87
2023-05-15T04:32:33.519Z,1006.84
2023-05-15T04:33:33.462Z,1006.82
2023-05-15T04:34:33.439Z,1006.82
2023-05-15T04:35:33.421Z,1006.82
2023-05-15T04:36:33.418Z,1006.82
2023-05-15T04:37:33.408Z,1006.81
2023-05-15T04:38:33.433Z,1006.86
2023-05-15T04:39:33.376Z,1006.90
2023-05-15T04:40:33.415Z,1006.84
2023-05-15T04:41:33.363Z,1006.92
2023-05-15T04:42:33.340Z,1006.96
2023-05-15T04:43:33.358Z,1006.98
2023-05-15T04:44:33.324Z,1006.93
2023-05-15T04:45:33.333Z,1006.92
2023-05-15T04:46:33.381Z,1006.93
2023-05-15T04:47:33.323Z,1006.88
2023-05-15T04:48:33.305Z,1006.89
2023-05-15T04:49:33.266Z,1006.90
2023-05-15T04:50:33.259Z,1006.85
2023-05-15T04:51:33.257Z,1006.86
2023-05-15T04:52:33.246Z,1006.86
2023-05-15T04:53:33.242Z,1006.91
2023-05-15T04:54:33.233Z,1006.84
2023-05-15T04:55:33.794Z,1006.86
2023-05-15T04:56:33.214Z,1006.81
2023-05-15T04:57:33.186Z,1006.89
2023-05-15T04:58:33.175Z,1006.86
2023-05-15T04:59:33.182Z,1006.81
2023-05-15T05:00:33.186Z,1006.77
2023-05-15T05:01:33.150Z,1006.74
2023-05-15T05:02:33.152Z,1006.67
2023-05-15T05:03:33.151Z,1006.65
2023-05-15T05:04:33.128Z,1006.72
2023-05-15T05:05:33.094Z,1006.68
2023-05-15T05:06:33.084Z,1006.68
2023-05-15T05:07:33.083Z,1006.70
2023-05-15T05:08:33.058Z,1006.67
2023-05-15T05:09:33.068Z,1006.66
2023-05-15T05:10:33.077Z,1006.66
2023-05-15T05:11:33.040Z,1006.70
2023-05-15T05:12:33.057Z,1006.65
2023-05-15T05:13:33.007Z,1006.60
2023-05-15T05:14:33.024Z,1006.58
2023-05-15T05:15:32.988Z,1006.58
2023-05-15T05:16:33.248Z,1006.59
2023-05-15T05:17:32.983Z,1006.61
2023-05-15T05:18:32.969Z,1006.54
2023-05-15T05:19:32.944Z,1006.57
2023-05-15T05:20:32.949Z,1006.52
2023-05-15T05:21:32.947Z,1006.49
2023-05-15T05:22:32.926Z,1006.49
2023-05-15T05:23:32.903Z,1006.47
2023-05-15T05:24:32.895Z,1006.41
2023-05-15T05:25:32.883Z,1006.40
2023-05-15T05:26:32.895Z,1006.45
2023-05-15T05:27:32.859Z,1006.45
2023-05-15T05:28:32.874Z,1006.47
2023-05-15T05:29:32.840Z,1006.42
2023-05-15T05:30:32.830Z,1006.49
2023-05-15T05:31:32.832Z,1006.40
2023-05-15T05:32:32.857Z,1006.37
2023-05-15T05:33:32.790Z,1006.47
2023-05-15T05:34:32.797Z,1006.44
2023-05-15T05:35:32.787Z,1006.42
2023-05-15T05:36:32.761Z,1006.45
2023-05-15T05:37:32.770Z,1006.45
2023-05-15T05:38:32.736Z,1006.44
2023-05-15T05:39:32.720Z,1006.41
2023-05-15T05:40:32.715Z,1006.40
2023-05-15T05:41:32.705Z,1006.38
2023-05-15T05:42:32.713Z,1006.34
2023-05-15T05:43:32.682Z,1006.37
2023-05-15T05:44:32.696Z,1006.37
2023-05-15T05:45:32.659Z,1006.37
2023-05-15T05:46:32.666Z,1006.33
2023-05-15T05:47:32.728Z,1006.32
2023-05-15T05:48:32.636Z,1006.34
2023-05-15T05:49:32.630Z,1006.26
2023-05-15T05:50:32.610Z,1006.30
2023-05-15T05:51:32.600Z,1006.38
2023-05-15T05:52:32.598Z,1006.28
2023-05-15T05:53:32.565Z,1006.34
2023-05-15T05:54:32.591Z,1006.29
2023-05-15T05:55:32.554Z,1006.34
2023-05-15T05:56:32.542Z,1006.32
2023-05-15T05:57:32.546Z,1006.28
2023-05-15T05:58:32.521Z,1006.35
2023-05-15T05:59:32.535Z,1006.28
2023-05-15T06:00:32.519Z,1006.21
2023-05-15T06:01:32.488Z,1006.28
2023-05-15T06:02:32.568Z,1006.21
2023-05-15T06:03:32.585Z,1006.19
2023-05-15T06:04:32.498Z,1006.16
2023-05-15T06:05:32.442Z,1006.18
2023-05-15T06:06:32.436Z,1006.17
2023-05-15T06:07:32.444Z,1006.17
2023-05-15T06:08:32.418Z,1006.19
2023-05-15T06:09:32.398Z,1006.21
2023-05-15T06:10:32.397Z,1006.24
2023-05-15T06:11:32.380Z,1006.31
2023-05-15T06:12:32.392Z,1006.15
2023-05-15T06:13:32.359Z,1006.17
2023-05-15T06:14:32.415Z,1006.21
2023-05-15T06:15:32.344Z,1006.19
2023-05-15T06:16:32.400Z,1006.11
2023-05-15T06:17:32.341Z,1006.16
2023-05-15T06:18:32.324Z,1006.16
2023-05-15T06:19:32.288Z,1006.18
2023-05-15T06:20:32.341Z,1006.21
2023-05-15T06:21:32.281Z,1006.17
2023-05-15T06:22:32.292Z,1006.16
2023-05-15T06:23:32.268Z,1006.14
2023-05-15T06:24:32.247Z,1006.17
2023-05-15T06:25:32.220Z,1006.13
2023-05-15T06:26:32.211Z,1006.13
2023-05-15T06:27:32.224Z,1006.07
2023-05-15T06:28:32.214Z,1006.07
2023-05-15T06:29:32.191Z,1006.08
2023-05-15T06:30:32.186Z,1006.08
2023-05-15T06:31:32.208Z,1006.03
2023-05-15T06:32:34.359Z,1005.99
2023-05-15T06:33:32.173Z,1006.02
2023-05-15T06:34:32.153Z,1005.94
2023-05-15T06:35:32.114Z,1005.99
2023-05-15T06:36:32.118Z,1005.96
2023-05-15T06:37:32.101Z,1006.01
2023-05-15T06:38:32.122Z,1005.93
2023-05-15T06:39:32.119Z,1005.95
2023-05-15T06:40:32.071Z,1005.97
2023-05-15T06:41:32.054Z,1006.02
2023-05-15T06:42:32.050Z,1005.99
2023-05-15T06:43:32.057Z,1005.98
2023-05-15T06:44:32.062Z,1005.96
2023-05-15T06:45:32.025Z,1005.97
2023-05-15T06:46:32.048Z,1005.96
2023-05-15T06:47:32.007Z,1005.96
2023-05-15T06:48:32.046Z,1005.96
2023-05-15T06:49:31.974Z,1005.88
2023-05-15T06:50:31.977Z,1005.96
2023-05-15T06:51:31.958Z,1005.91
2023-05-15T06:52:31.936Z,1005.94
2023-05-15T06:53:31.928Z,1005.93
2023-05-15T06:54:31.944Z,1005.95
2023-05-15T06:55:31.911Z,1005.92
2023-05-15T06:56:31.904Z,1005.96
2023-05-15T06:57:31.902Z,1005.91
2023-05-15T06:58:31.874Z,1005.90
2023-05-15T06:59:31.887Z,1005.92
2023-05-15T07:00:31.851Z,1005.90
2023-05-15T07:01:31.895Z,1005.92
2023-05-15T07:02:31.850Z,1005.88
2023-05-15T07:03:31.824Z,1005.82
2023-05-15T07:04:31.941Z,1005.84
2023-05-15T07:05:31.803Z,1005.82
2023-05-15T07:06:31.790Z,1005.77
2023-05-15T07:07:31.807Z,1005.88
2023-05-15T07:08:31.757Z,1005.86
2023-05-15T07:09:31.770Z,1005.81
2023-05-15T07:10:31.750Z,1005.79
2023-05-15T07:11:31.737Z,1005.83
2023-05-15T07:12:31.736Z,1005.77
2023-05-15T07:13:31.705Z,1005.80
2023-05-15T07:14:31.710Z,1005.83
2023-05-15T07:15:31.695Z,1005.80
2023-05-15T07:16:31.671Z,1005.81
2023-05-15T07:17:31.848Z,1005.76
2023-05-15T07:18:31.688Z,1005.79
2023-05-15T07:19:31.765Z,1005.77
2023-05-15T07:20:34.284Z,1005.79
2023-05-15T07:21:31.637Z,1005.77
2023-05-15T07:22:32.912Z,1005.74
2023-05-15T07:23:31.601Z,1005.77
2023-05-15T07:24:31.621Z,1005.73
2023-05-15T07:25:31.597Z,1005.72
2023-05-15T07:26:38.444Z,1005.66
2023-05-15T07:27:32.556Z,1005.68
2023-05-15T07:28:31.542Z,1005.66
2023-05-15T07:29:31.608Z,1005.74
2023-05-15T07:30:31.543Z,1005.68
2023-05-15T07:31:31.649Z,1005.69
2023-05-15T07:32:31.518Z,1005.67
2023-05-15T07:33:31.496Z,1005.63
2023-05-15T07:34:31.510Z,1005.59
2023-05-15T07:35:31.474Z,1005.61
2023-05-15T07:36:31.478Z,1005.62
2023-05-15T07:37:31.449Z,1005.63
2023-05-15T07:38:31.439Z,1005.62
2023-05-15T07:39:31.468Z,1005.63
2023-05-15T07:40:31.425Z,1005.63
2023-05-15T07:41:31.409Z,1005.54
2023-05-15T07:42:31.418Z,1005.57
2023-05-15T07:43:31.388Z,1005.58
2023-05-15T07:44:31.362Z,1005.56
2023-05-15T07:45:31.393Z,1005.60
2023-05-15T07:46:31.402Z,1005.57
2023-05-15T07:47:31.424Z,1005.57
2023-05-15T07:48:31.327Z,1005.60
2023-05-15T07:49:31.324Z,1005.58
2023-05-15T07:50:31.304Z,1005.54
2023-05-15T07:51:31.298Z,1005.54
2023-05-15T07:52:31.341Z,1005.51
2023-05-15T07:53:31.274Z,1005.51
2023-05-15T07:54:31.256Z,1005.46
2023-05-15T07:55:31.251Z,1005.57
2023-05-15T07:56:31.260Z,1005.48
2023-05-15T07:57:31.226Z,1005.52
2023-05-15T07:58:31.260Z,1005.49
2023-05-15T07:59:31.241Z,1005.47
2023-05-15T08:00:31.192Z,1005.45
2023-05-15T08:01:32.636Z,1005.46
2023-05-15T08:02:31.207Z,1005.43
2023-05-15T08:03:31.335Z,1005.40
2023-05-15T08:04:31.255Z,1005.38
2023-05-15T08:05:31.144Z,1005.41
2023-05-15T08:06:31.142Z,1005.41
2023-05-15T08:07:31.121Z,1005.40
2023-05-15T08:08:31.134Z,1005.38
2023-05-15T08:09:31.145Z,1005.41
2023-05-15T08:10:31.108Z,1005.36
2023-05-15T08:11:31.081Z,1005.45
2023-05-15T08:12:31.064Z,1005.37
2023-05-15T08:13:31.075Z,1005.39
2023-05-15T08:14:31.121Z,1005.30
2023-05-15T08:15:31.062Z,1005.31
2023-05-15T08:16:31.072Z,1005.35
2023-05-15T08:17:31.040Z,1005.35
2023-05-15T08:18:31.038Z,1005.31
2023-05-15T08:19:30.995Z,1005.29
2023-05-15T08:20:30.982Z,1005.30
2023-05-15T08:21:30.982Z,1005.26
2023-05-15T08:22:30.976Z,1005.22
2023-05-15T08:23:30.975Z,1005.31
2023-05-15T08:24:31.009Z,1005.24
2023-05-15T08:25:30.951Z,1005.28
2023-05-15T08:26:30.937Z,1005.25
2023-05-15T08:27:30.956Z,1005.32
2023-05-15T08:28:30.990Z,1005.23
2023-05-15T08:29:30.888Z,1005.26
2023-05-15T08:30:30.877Z,1005.24
2023-05-15T08:31:30.907Z,1005.24
2023-05-15T08:32:30.891Z,1005.18
2023-05-15T08:33:30.867Z,1005.18
2023-05-15T08:34:30.828Z,1005.14
2023-05-15T08:35:30.881Z,1005.15
2023-05-15T08:36:30.855Z,1005.15
2023-05-15T08:37:30.799Z,1005.20
2023-05-15T08:38:30.783Z,1005.11
2023-05-15T08:39:30.792Z,1005.19
2023-05-15T08:40:39.046Z,1005.12
2023-05-15T08:41:40.121Z,1005.11
2023-05-15T08:42:34.092Z,1005.13
2023-05-15T08:43:30.738Z,1005.09
2023-05-15T08:44:30.728Z,1005.11
2023-05-15T08:45:30.741Z,1005.03
2023-05-15T08:46:30.710Z,1005.10
2023-05-15T08:47:30.694Z,1005.04
2023-05-15T08:48:30.717Z,1005.06
2023-05-15T08:49:30.686Z,1005.03
2023-05-15T08:50:30.662Z,1004.99
2023-05-15T08:51:30.670Z,1005.00
2023-05-15T08:52:30.637Z,1005.00
2023-05-15T08:53:30.654Z,1005.00
2023-05-15T08:54:30.618Z,1004.96
2023-05-15T08:55:30.631Z,1004.97
2023-05-15T08:56:30.639Z,1004.94
2023-05-15T08:57:30.592Z,1004.95
2023-05-15T08:58:30.577Z,1004.92
2023-05-15T08:59:30.564Z,1004.91
2023-05-15T09:00:30.571Z,1004.85
2023-05-15T09:01:30.645Z,1004.91
2023-05-15T09:02:30.554Z,1004.87
2023-05-15T09:03:30.620Z,1004.87
2023-05-15T09:04:30.510Z,1004.85
2023-05-15T09:05:30.505Z,1004.84
2023-05-15T09:06:30.486Z,1004.79
2023-05-15T09:07:30.481Z,1004.80
2023-05-15T09:08:30.498Z,1004.86
2023-05-15T09:09:30.455Z,1004.79
2023-05-15T09:10:30.452Z,1004.84
2023-05-15T09:11:30.456Z,1004.76
2023-05-15T09:12:30.443Z,1004.76
2023-05-15T09:13:30.412Z,1004.74
2023-05-15T09:14:30.399Z,1004.74
2023-05-15T09:15:30.410Z,1004.72
2023-05-15T09:16:30.413Z,1004.70
2023-05-15T09:17:30.383Z,1004.74
2023-05-15T09:18:30.383Z,1004.70
2023-05-15T09:19:30.354Z,1004.67
2023-05-15T09:20:30.347Z,1004.75
2023-05-15T09:21:30.348Z,1004.77
2023-05-15T09:22:30.316Z,1004.74
2023-05-15T09:23:30.307Z,1004.68
2023-05-15T09:24:30.289Z,1004.72
2023-05-15T09:25:30.280Z,1004.78
2023-05-15T09:26:30.284Z,1004.77
2023-05-15T09:27:30.270Z,1004.71
2023-05-15T09:28:30.295Z,1004.73
2023-05-15T09:29:30.235Z,1004.69
2023-05-15T09:30:30.255Z,1004.72
2023-05-15T09:31:30.261Z,1004.67
2023-05-15T09:32:30.234Z,1004.72
2023-05-15T09:33:30.212Z,1004.71
2023-05-15T09:34:30.185Z,1004.78
2023-05-15T09:35:30.545Z,1004.72
2023-05-15T09:36:30.205Z,1004.77
2023-05-15T09:37:30.184Z,1004.75
2023-05-15T09:38:30.135Z,1004.73
2023-05-15T09:39:30.146Z,1004.78
2023-05-15T09:40:30.109Z,1004.77
2023-05-15T09:41:30.128Z,1004.73
2023-05-15T09:42:30.114Z,1004.78
2023-05-15T09:43:30.090Z,1004.76
2023-05-15T09:44:30.089Z,1004.68
2023-05-15T09:45:30.491Z,1004.75
2023-05-15T09:46:30.172Z,1004.78
2023-05-15T09:47:30.291Z,1004.75
2023-05-15T09:48:30.170Z,1004.74
2023-05-15T09:49:31.044Z,1004.74
2023-05-15T09:50:30.036Z,1004.78
2023-05-15T09:51:30.021Z,1004.74
2023-05-15T09:52:29.981Z,1004.79
2023-05-15T09:53:29.969Z,1004.82
2023-05-15T09:54:29.993Z,1004.78
2023-05-15T09:55:29.952Z,1004.81
2023-05-15T09:56:29.954Z,1004.75
2023-05-15T09:57:29.984Z,1004.77
2023-05-15T09:58:29.923Z,1004.77
2023-05-15T09:59:29.910Z,1004.77
2023-05-15T10:00:31.969Z,1004.78
2023-05-15T10:01:29.935Z,1004.75
2023-05-15T10:02:29.895Z,1004.74
2023-05-15T10:03:29.865Z,1004.73
2023-05-15T10:04:29.845Z,1004.78
2023-05-15T10:05:41.951Z,1004.80
2023-05-15T10:06:30.855Z,1004.78
2023-05-15T10:07:29.829Z,1004.72
2023-05-15T10:08:29.815Z,1004.74
2023-05-15T10:09:29.796Z,1004.73
2023-05-15T10:10:29.787Z,1004.80
2023-05-15T10:11:29.778Z,1004.79
2023-05-15T10:12:29.784Z,1004.78
2023-05-15T10:13:29.779Z,1004.82
2023-05-15T10:14:29.747Z,1004.75
2023-05-15T10:15:29.739Z,1004.80
2023-05-15T10:16:29.847Z,1004.80
2023-05-15T10:17:29.756Z,1004.79
2023-05-15T10:18:29.733Z,1004.84
2023-05-15T10:19:29.698Z,1004.77
2023-05-15T10:20:29.690Z,1004.75
2023-05-15T10:21:29.666Z,1004.82
2023-05-15T10:22:29.681Z,1004.81
2023-05-15T10:23:29.670Z,1004.73
2023-05-15T10:24:29.641Z,1004.77
2023-05-15T10:25:29.629Z,1004.79
2023-05-15T10:26:29.607Z,1004.76
2023-05-15T10:27:29.631Z,1004.70
2023-05-15T10:28:29.589Z,1004.71
2023-05-15T10:29:29.596Z,1004.73
2023-05-15T10:30:29.601Z,1004.70
2023-05-15T10:31:29.622Z,1004.71
2023-05-15T10:32:29.621Z,1004.64
2023-05-15T10:33:29.589Z,1004.64
2023-05-15T10:34:29.533Z,1004.61
2023-05-15T10:35:29.524Z,1004.60
2023-05-15T10:36:29.513Z,1004.58
2023-05-15T10:37:29.566Z,1004.54
2023-05-15T10:38:29.495Z,1004.53
2023-05-15T10:39:29.503Z,1004.53
2023-05-15T10:40:29.460Z,1004.49
2023-05-15T10:41:29.481Z,1004.45
2023-05-15T10:42:29.442Z,1004.44
2023-05-15T10:43:29.429Z,1004.49
2023-05-15T10:44:29.453Z,1004.36
2023-05-15T10:45:29.407Z,1004.38
2023-05-15T10:46:29.420Z,1004.32
2023-05-15T10:47:29.420Z,1004.39
2023-05-15T10:48:29.396Z,1004.40
2023-05-15T10:49:29.371Z,1004.30
2023-05-15T10:50:29.370Z,1004.31
2023-05-15T10:51:29.355Z,1004.28
2023-05-15T10:52:29.330Z,1004.27
2023-05-15T10:53:29.324Z,1004.26
2023-05-15T10:54:29.312Z,1004.30
2023-05-15T10:55:29.321Z,1004.27
2023-05-15T10:56:29.382Z,1004.27
2023-05-15T10:57:29.281Z,1004.30
2023-05-15T10:58:29.270Z,1004.25
2023-05-15T10:59:29.254Z,1004.25
2023-05-15T11:00:29.592Z,1004.20
2023-05-15T11:01:29.346Z,1004.19
2023-05-15T11:02:29.243Z,1004.19
2023-05-15T11:03:37.939Z,1004.21
2023-05-15T11:04:30.237Z,1004.21
2023-05-15T11:05:29.195Z,1004.17
2023-05-15T11:06:29.203Z,1004.18
2023-05-15T11:07:29.176Z,1004.16
2023-05-15T11:08:29.173Z,1004.19
2023-05-15T11:09:29.171Z,1004.17
2023-05-15T11:10:29.147Z,1004.18
2023-05-15T11:11:29.124Z,1004.18
2023-05-15T11:12:29.138Z,1004.17
2023-05-15T11:13:29.102Z,1004.21
2023-05-15T11:14:29.111Z,1004.19
2023-05-15T11:15:29.087Z,1004.18
2023-05-15T11:16:29.154Z,1004.21
2023-05-15T11:17:29.072Z,1004.18
2023-05-15T11:18:29.051Z,1004.16
2023-05-15T11:19:29.054Z,1004.13
2023-05-15T11:20:29.054Z,1004.16
2023-05-15T11:21:29.014Z,1004.09
2023-05-15T11:22:29.000Z,1004.12
2023-05-15T11:23:29.025Z,1004.14
2023-05-15T11:24:29.015Z,1004.09
2023-05-15T11:25:28.976Z,1004.08
2023-05-15T11:26:29.009Z,1004.07
2023-05-15T11:27:28.951Z,1004.06
2023-05-15T11:28:31.281Z,1004.05
2023-05-15T11:29:28.948Z,1004.01
2023-05-15T11:30:28.931Z,1004.08
2023-05-15T11:31:28.963Z,1003.95
2023-05-15T11:32:28.926Z,1004.00
2023-05-15T11:33:28.883Z,1003.96
2023-05-15T11:34:28.872Z,1003.97
2023-05-15T11:35:28.901Z,1004.00
2023-05-15T11:36:28.883Z,1003.96
2023-05-15T11:37:28.841Z,1003.94
2023-05-15T11:38:28.835Z,1003.97
2023-05-15T11:39:28.834Z,1003.93
2023-05-15T11:40:28.972Z,1003.97
2023-05-15T11:41:28.800Z,1003.88
2023-05-15T11:42:28.819Z,1003.89
2023-05-15T11:43:28.798Z,1003.92
2023-05-15T11:44:28.777Z,1003.87
2023-05-15T11:45:28.765Z,1003.86
2023-05-15T11:46:28.790Z,1003.93
2023-05-15T11:47:28.750Z,1003.85
2023-05-15T11:48:28.741Z,1003.88
2023-05-15T11:49:28.714Z,1003.82
2023-05-15T11:50:28.713Z,1003.74
2023-05-15T11:51:28.720Z,1003.74
2023-05-15T11:52:28.704Z,1003.71
2023-05-15T11:53:28.672Z,1003.70
2023-05-15T11:54:28.663Z,1003.72
2023-05-15T11:55:28.662Z,1003.67
2023-05-15T11:56:28.694Z,1003.68
2023-05-15T11:57:28.632Z,1003.66
2023-05-15T11:58:28.636Z,1003.69
2023-05-15T11:59:28.615Z,1003.65
2023-05-15T12:00:28.609Z,1003.63
2023-05-15T12:01:28.631Z,1003.65
2023-05-15T12:02:28.651Z,1003.59
2023-05-15T12:03:28.719Z,1003.57
2023-05-15T12:04:28.607Z,1003.56
2023-05-15T12:05:28.563Z,1003.56